Time;durP1;ratioP1;P1;durP2;ratioP2;P2;SDS_P1;SDS_P2;PMS_P1;PMS_P2;Temp;Humidity;BMP_temperature;BMP_pressure;BME280_temperature;BME280_humidity;BME280_pressure;Samples;Min_cycle;Max_cycle;Signal;HPM_P1;HPM_P2
2022/07/26 00:01:15;;;;;;;2.92;0.77;;;23.30;96.90;;;;;;5068740;28;20048;-58
2022/07/26 00:03:40;;;;;;;2.58;1.08;;;23.30;96.90;;;;;;5057554;28;20071;-59
2022/07/26 00:06:06;;;;;;;2.97;0.75;;;23.30;97.20;;;;;;5072465;28;20052;-59
2022/07/26 00:08:32;;;;;;;2.22;0.90;;;23.30;97.10;;;;;;5072919;28;20056;-60
2022/07/26 00:10:58;;;;;;;3.38;1.10;;;23.30;97.10;;;;;;5071852;28;20044;-60
2022/07/26 00:13:24;;;;;;;2.75;1.00;;;23.30;97.20;;;;;;5072757;28;20135;-60
2022/07/26 00:15:50;;;;;;;2.15;0.93;;;23.30;97.30;;;;;;5070616;28;20094;-59
2022/07/26 00:18:17;;;;;;;4.50;1.23;;;23.30;97.40;;;;;;5072395;28;20063;-60
2022/07/26 00:20:43;;;;;;;2.88;1.20;;;23.30;97.40;;;;;;5072279;28;20054;-60
2022/07/26 00:23:09;;;;;;;2.72;0.98;;;23.30;97.40;;;;;;5072079;28;20155;-60
2022/07/26 00:25:34;;;;;;;1.45;0.80;;;23.30;97.50;;;;;;5071600;28;20553;-60
2022/07/26 00:28:00;;;;;;;2.47;1.30;;;23.20;97.50;;;;;;5071476;28;20058;-60
2022/07/26 00:30:26;;;;;;;1.10;0.80;;;23.30;97.50;;;;;;5071472;28;20045;-60
2022/07/26 00:32:52;;;;;;;1.77;0.90;;;23.20;97.50;;;;;;5070934;28;20064;-60
2022/07/26 00:35:19;;;;;;;2.03;1.02;;;23.30;97.60;;;;;;5087569;28;20078;-60
2022/07/26 00:37:45;;;;;;;5.50;1.13;;;23.30;97.70;;;;;;5071940;28;20409;-60
2022/07/26 00:40:11;;;;;;;0.70;0.70;;;23.30;97.70;;;;;;5071211;28;20087;-60
2022/07/26 00:42:37;;;;;;;1.77;1.10;;;23.20;97.80;;;;;;5072010;28;20497;-60
2022/07/26 00:45:04;;;;;;;1.65;0.90;;;23.20;97.80;;;;;;5071392;28;20098;-59
2022/07/26 00:47:31;;;;;;;1.80;1.00;;;23.20;97.90;;;;;;5070248;28;20040;-60
2022/07/26 00:49:57;;;;;;;4.10;0.90;;;23.20;97.90;;;;;;5071421;28;20056;-60
2022/07/26 00:52:23;;;;;;;2.22;1.00;;;23.20;97.90;;;;;;5052708;28;20171;-60
2022/07/26 00:54:49;;;;;;;2.38;0.93;;;23.20;97.90;;;;;;5052083;28;20049;-58
2022/07/26 00:57:15;;;;;;;2.78;1.17;;;23.20;97.90;;;;;;5071419;28;20055;-60
2022/07/26 00:59:41;;;;;;;1.35;0.80;;;23.20;97.90;;;;;;5071553;28;20052;-60
2022/07/26 01:02:08;;;;;;;3.00;1.23;;;23.20;97.90;;;;;;5069209;28;20798;-60
2022/07/26 01:04:35;;;;;;;1.98;1.08;;;23.20;98.00;;;;;;5071890;28;20044;-60
2022/07/26 01:07:02;;;;;;;1.27;0.90;;;23.20;98.00;;;;;;5071110;28;20134;-60
2022/07/26 01:09:28;;;;;;;1.38;0.98;;;23.20;98.00;;;;;;5071559;28;20048;-60
2022/07/26 01:11:53;;;;;;;1.70;1.10;;;23.20;98.00;;;;;;5070196;28;20117;-60
2022/07/26 01:14:22;;;;;;;2.17;0.77;;;23.20;98.00;;;;;;5071776;28;20462;-60
2022/07/26 01:16:49;;;;;;;1.30;0.80;;;23.20;98.10;;;;;;5068764;28;20049;-60
2022/07/26 01:19:15;;;;;;;2.22;1.00;;;23.20;98.10;;;;;;5069824;28;20102;-60
2022/07/26 01:21:40;;;;;;;1.88;1.00;;;23.20;98.20;;;;;;5070230;28;20090;-60
2022/07/26 01:24:06;;;;;;;2.65;1.27;;;23.20;98.20;;;;;;5071166;28;20056;-60
2022/07/26 01:26:32;;;;;;;2.17;1.30;;;23.20;98.20;;;;;;5070650;28;20056;-59
2022/07/26 01:28:58;;;;;;;1.35;0.75;;;23.20;98.20;;;;;;5070824;28;20053;-60
2022/07/26 01:31:24;;;;;;;1.02;0.90;;;23.20;98.20;;;;;;5069393;28;20083;-60
2022/07/26 01:33:50;;;;;;;1.90;0.80;;;23.20;98.20;;;;;;5071254;28;20781;-60
2022/07/26 01:36:16;;;;;;;2.85;1.00;;;23.20;98.30;;;;;;5069877;28;20044;-60
2022/07/26 01:38:42;;;;;;;0.60;0.60;;;23.20;98.30;;;;;;5071181;28;20048;-60
2022/07/26 01:41:08;;;;;;;1.92;0.88;;;23.10;98.30;;;;;;5070099;28;20041;-60
2022/07/26 01:43:34;;;;;;;1.67;0.95;;;23.10;98.30;;;;;;5071170;28;20075;-60
2022/07/26 01:46:00;;;;;;;2.10;0.80;;;23.10;98.30;;;;;;5068459;28;20592;-60
2022/07/26 01:48:25;;;;;;;1.25;0.80;;;23.10;98.30;;;;;;5071100;28;20099;-60
2022/07/26 01:50:51;;;;;;;2.22;1.15;;;23.20;98.40;;;;;;5070898;28;20143;-60
2022/07/26 01:53:17;;;;;;;2.15;0.95;;;23.10;98.40;;;;;;5070407;28;20048;-59
2022/07/26 01:55:42;;;;;;;1.83;1.00;;;23.10;98.40;;;;;;5070607;28;20512;-59
2022/07/26 01:58:08;;;;;;;1.00;0.80;;;23.10;98.40;;;;;;5057565;28;20048;-60
2022/07/26 02:00:34;;;;;;;2.83;0.80;;;23.20;98.50;;;;;;5049820;28;20106;-60
2022/07/26 02:03:00;;;;;;;1.58;0.70;;;23.10;98.40;;;;;;5049458;28;20051;-60
2022/07/26 02:05:26;;;;;;;3.08;0.85;;;23.10;98.50;;;;;;5050539;28;20560;-60
2022/07/26 02:07:51;;;;;;;1.25;0.80;;;23.20;98.50;;;;;;5050783;28;20048;-60
2022/07/26 02:10:18;;;;;;;0.88;0.70;;;23.10;98.50;;;;;;5049861;28;20048;-60
2022/07/26 02:12:43;;;;;;;1.25;0.90;;;23.10;98.50;;;;;;5050224;28;20502;-60
2022/07/26 02:15:10;;;;;;;1.00;0.82;;;23.10;98.50;;;;;;5048933;28;20056;-60
2022/07/26 02:17:36;;;;;;;2.55;1.30;;;23.10;98.50;;;;;;5060180;28;20053;-60
2022/07/26 02:20:02;;;;;;;1.23;0.70;;;23.10;98.60;;;;;;5070102;28;20051;-60
2022/07/26 02:22:28;;;;;;;1.55;1.00;;;23.10;98.60;;;;;;5070799;28;20041;-60
2022/07/26 02:24:54;;;;;;;1.83;0.98;;;23.10;98.60;;;;;;5069679;28;20049;-60
2022/07/26 02:27:20;;;;;;;1.52;0.68;;;23.10;98.60;;;;;;5069740;28;20041;-60
2022/07/26 02:29:46;;;;;;;4.28;1.10;;;23.10;98.60;;;;;;5070724;28;20048;-60
2022/07/26 02:32:11;;;;;;;3.42;0.88;;;23.10;98.70;;;;;;5068156;28;20040;-60
2022/07/26 02:34:37;;;;;;;2.80;0.80;;;23.10;98.70;;;;;;5070603;28;20123;-60
2022/07/26 02:37:03;;;;;;;1.50;1.05;;;23.10;98.70;;;;;;5067549;28;20048;-60
2022/07/26 02:39:29;;;;;;;1.45;0.70;;;23.10;98.70;;;;;;5070414;28;20125;-60
2022/07/26 02:41:57;;;;;;;1.15;0.80;;;23.10;98.80;;;;;;5069831;28;20045;-60
2022/07/26 02:44:24;;;;;;;2.20;1.10;;;23.10;98.80;;;;;;5070214;28;20056;-60
2022/07/26 02:46:50;;;;;;;1.70;0.90;;;23.10;98.80;;;;;;5068372;28;20059;-60
2022/07/26 02:49:16;;;;;;;2.35;0.95;;;23.10;98.80;;;;;;5069763;28;20049;-60
2022/07/26 02:51:42;;;;;;;3.05;1.50;;;23.10;98.90;;;;;;5070586;28;20060;-59
2022/07/26 02:54:08;;;;;;;2.00;1.08;;;23.10;98.90;;;;;;5069797;28;20051;-60
2022/07/26 02:56:33;;;;;;;1.05;0.70;;;23.10;98.90;;;;;;5060814;28;20527;-60
2022/07/26 02:58:59;;;;;;;1.15;0.75;;;23.00;98.90;;;;;;5050121;28;20090;-58
2022/07/26 03:01:25;;;;;;;1.45;0.65;;;23.00;98.90;;;;;;5048070;28;20057;-60
2022/07/26 03:03:50;;;;;;;2.08;0.95;;;23.10;98.90;;;;;;5050294;28;20550;-60
2022/07/26 03:06:17;;;;;;;2.03;0.90;;;23.10;99.20;;;;;;5049674;28;20494;-60
2022/07/26 03:08:42;;;;;;;1.08;0.75;;;23.00;98.90;;;;;;5057657;28;20045;-60
2022/07/26 03:11:08;;;;;;;2.92;0.80;;;23.00;98.90;;;;;;5069263;28;20071;-60
2022/07/26 03:13:34;;;;;;;1.40;0.88;;;23.10;99.00;;;;;;5070121;28;20059;-60
2022/07/26 03:16:00;;;;;;;1.10;0.80;;;23.00;99.00;;;;;;5068029;28;20049;-60
2022/07/26 03:18:26;;;;;;;4.25;1.33;;;23.00;99.00;;;;;;5069750;28;20048;-60
2022/07/26 03:20:51;;;;;;;1.63;0.90;;;23.00;99.00;;;;;;5069694;28;20044;-60
2022/07/26 03:23:17;;;;;;;2.92;1.25;;;23.00;99.00;;;;;;5069237;28;20048;-60
2022/07/26 03:25:43;;;;;;;1.90;0.85;;;23.10;99.00;;;;;;5070211;28;20048;-59
2022/07/26 03:28:08;;;;;;;1.25;0.80;;;23.00;99.10;;;;;;5073044;28;20056;-60
2022/07/26 03:30:34;;;;;;;1.95;0.90;;;23.00;99.10;;;;;;5072699;28;20051;-60
2022/07/26 03:33:00;;;;;;;2.70;0.90;;;23.00;99.10;;;;;;5072532;28;20056;-59
2022/07/26 03:35:26;;;;;;;2.67;1.00;;;23.00;99.10;;;;;;5072950;28;20056;-60
2022/07/26 03:37:52;;;;;;;3.33;0.77;;;23.00;99.10;;;;;;5073309;28;20056;-60
2022/07/26 03:40:18;;;;;;;2.25;0.90;;;23.00;99.20;;;;;;5072730;28;20213;-60
2022/07/26 03:42:45;;;;;;;1.75;0.80;;;23.00;99.20;;;;;;5072782;28;20044;-60
2022/07/26 03:45:11;;;;;;;2.33;0.93;;;23.00;99.20;;;;;;5070033;28;20482;-60
2022/07/26 03:47:37;;;;;;;1.60;0.90;;;23.00;99.10;;;;;;5071434;28;20048;-60
2022/07/26 03:50:04;;;;;;;1.60;0.80;;;23.00;99.20;;;;;;5073018;28;20056;-60
2022/07/26 03:52:30;;;;;;;1.20;0.63;;;23.00;99.20;;;;;;5071747;28;20502;-60
2022/07/26 03:54:56;;;;;;;3.88;0.93;;;23.00;99.20;;;;;;5073144;28;20080;-60
2022/07/26 03:57:22;;;;;;;4.13;1.10;;;23.00;99.30;;;;;;5071925;28;20135;-60
2022/07/26 03:59:47;;;;;;;1.63;0.73;;;23.00;99.30;;;;;;5073054;28;20045;-60
2022/07/26 04:02:13;;;;;;;2.05;0.90;;;23.00;99.30;;;;;;5070127;28;20131;-60
2022/07/26 04:04:39;;;;;;;2.88;1.00;;;23.00;99.30;;;;;;5072805;28;20043;-60
2022/07/26 04:07:04;;;;;;;2.10;0.80;;;23.00;99.30;;;;;;5072629;28;20387;-58
2022/07/26 04:09:30;;;;;;;1.25;0.73;;;23.00;99.40;;;;;;5072138;28;20044;-60
2022/07/26 04:11:56;;;;;;;1.83;1.10;;;23.00;99.40;;;;;;5072407;28;20083;-60
2022/07/26 04:14:22;;;;;;;1.08;0.70;;;23.00;99.40;;;;;;5072233;28;20114;-60
2022/07/26 04:16:47;;;;;;;2.33;1.15;;;23.00;99.40;;;;;;5070756;28;20106;-60
2022/07/26 04:19:13;;;;;;;2.35;1.00;;;23.00;99.40;;;;;;5072010;28;20048;-60
2022/07/26 04:21:39;;;;;;;2.28;1.00;;;23.00;99.40;;;;;;5072480;28;20123;-60
2022/07/26 04:24:07;;;;;;;2.05;0.77;;;23.00;99.40;;;;;;5072650;28;20040;-59
2022/07/26 04:26:33;;;;;;;1.58;1.00;;;23.00;99.50;;;;;;5068287;28;20045;-60
2022/07/26 04:28:58;;;;;;;2.20;0.98;;;23.00;99.50;;;;;;5052135;28;20521;-60
2022/07/26 04:31:24;;;;;;;3.40;1.00;;;23.00;99.50;;;;;;5063110;28;20045;-60
2022/07/26 04:33:50;;;;;;;1.63;1.13;;;23.00;99.50;;;;;;5066935;28;20052;-60
2022/07/26 04:36:16;;;;;;;1.73;0.85;;;23.00;99.50;;;;;;5058116;28;20053;-60
2022/07/26 04:38:42;;;;;;;1.80;1.05;;;23.00;99.60;;;;;;5058299;28;20053;-59
2022/07/26 04:41:08;;;;;;;1.85;0.75;;;23.00;99.60;;;;;;5069887;28;20041;-58
2022/07/26 04:43:34;;;;;;;1.85;0.88;;;23.00;99.60;;;;;;5071947;28;20048;-60
2022/07/26 04:46:00;;;;;;;2.30;1.00;;;23.00;99.60;;;;;;5085628;28;20044;-60
2022/07/26 04:48:25;;;;;;;2.17;0.73;;;23.00;99.60;;;;;;5071560;28;20543;-60
2022/07/26 04:50:51;;;;;;;2.13;1.10;;;23.00;99.60;;;;;;5070542;28;20092;-60
2022/07/26 04:53:17;;;;;;;0.95;0.85;;;23.00;99.60;;;;;;5087151;28;20060;-60
2022/07/26 04:55:43;;;;;;;1.42;0.63;;;23.00;99.60;;;;;;5070995;28;20055;-59
2022/07/26 04:58:09;;;;;;;0.95;0.70;;;23.00;99.70;;;;;;5071623;28;20086;-58
2022/07/26 05:00:36;;;;;;;1.58;1.20;;;23.00;99.70;;;;;;5070614;28;20046;-60
2022/07/26 05:03:02;;;;;;;0.95;0.70;;;23.00;99.70;;;;;;5056753;28;20087;-60
2022/07/26 05:05:31;;;;;;;0.93;0.77;;;23.00;99.70;;;;;;5051058;28;20044;-60
2022/07/26 05:07:59;;;;;;;1.77;0.80;;;23.00;99.70;;;;;;5051593;28;20045;-60
2022/07/26 05:10:35;;;;;;;1.55;0.85;;;23.00;99.70;;;;;;5058044;28;20053;-60
2022/07/26 05:13:03;;;;;;;2.42;0.82;;;23.00;99.60;;;;;;5051456;28;20049;-60
2022/07/26 05:15:30;;;;;;;1.20;0.70;;;23.00;99.60;;;;;;5049891;28;20095;-60
2022/07/26 05:18:00;;;;;;;2.92;0.70;;;23.00;99.60;;;;;;5067083;28;20060;-60
2022/07/26 05:20:26;;;;;;;1.67;0.80;;;23.00;99.60;;;;;;5062747;28;20044;-60
2022/07/26 05:22:52;;;;;;;1.00;0.73;;;22.90;99.60;;;;;;5065364;28;20048;-60
2022/07/26 05:25:18;;;;;;;1.33;0.80;;;22.90;99.60;;;;;;5070673;28;20482;-60
2022/07/26 05:27:43;;;;;;;1.38;0.70;;;23.00;99.70;;;;;;5071103;28;20083;-60
2022/07/26 05:30:09;;;;;;;1.30;0.90;;;23.00;99.70;;;;;;5070608;28;20048;-60
2022/07/26 05:32:35;;;;;;;2.15;0.60;;;23.00;99.70;;;;;;5069801;28;20040;-60
2022/07/26 05:35:01;;;;;;;2.35;0.85;;;23.00;99.70;;;;;;5071147;28;20044;-59
2022/07/26 05:37:26;;;;;;;0.93;0.80;;;23.00;99.70;;;;;;5070315;28;20127;-60
2022/07/26 05:39:52;;;;;;;0.85;0.50;;;22.90;99.70;;;;;;5071379;28;20052;-60
2022/07/26 05:42:18;;;;;;;1.25;0.90;;;23.00;99.70;;;;;;5070145;28;20052;-60
2022/07/26 05:44:43;;;;;;;1.27;0.70;;;22.90;99.60;;;;;;5071112;28;20044;-60
2022/07/26 05:47:09;;;;;;;2.05;0.85;;;23.00;99.70;;;;;;5068894;28;20604;-60
2022/07/26 05:49:35;;;;;;;1.33;0.80;;;23.00;99.60;;;;;;5069547;28;20739;-60
2022/07/26 05:52:01;;;;;;;1.42;0.88;;;23.00;99.60;;;;;;5070299;28;20045;-60
2022/07/26 05:54:26;;;;;;;1.48;0.70;;;23.00;99.60;;;;;;5070518;28;20070;-60
2022/07/26 05:56:52;;;;;;;1.40;1.00;;;23.00;99.60;;;;;;5070417;28;20468;-60
2022/07/26 05:59:18;;;;;;;1.42;0.63;;;23.00;99.70;;;;;;5070665;28;20390;-58
2022/07/26 06:01:43;;;;;;;1.17;0.85;;;23.00;99.70;;;;;;5068589;28;20174;-60
2022/07/26 06:04:09;;;;;;;2.88;0.95;;;23.00;99.70;;;;;;5069822;28;20056;-59
2022/07/26 06:06:35;;;;;;;1.25;0.75;;;23.00;99.70;;;;;;5070252;28;20060;-60
2022/07/26 06:09:00;;;;;;;0.63;0.60;;;23.00;99.70;;;;;;5070821;28;20524;-61
2022/07/26 06:11:26;;;;;;;1.88;0.75;;;23.00;99.70;;;;;;5069921;28;20076;-61
2022/07/26 06:13:52;;;;;;;0.85;0.82;;;23.00;99.70;;;;;;5060582;28;20040;-61
2022/07/26 06:16:17;;;;;;;0.90;0.65;;;23.00;99.80;;;;;;5057776;28;20154;-61
2022/07/26 06:18:43;;;;;;;1.30;0.60;;;23.00;99.80;;;;;;5068802;28;20036;-60
2022/07/26 06:21:09;;;;;;;1.58;0.70;;;23.00;99.80;;;;;;5069960;28;20044;-59
2022/07/26 06:23:34;;;;;;;0.75;0.70;;;23.00;99.80;;;;;;5070084;28;20098;-60
2022/07/26 06:26:01;;;;;;;2.10;1.13;;;23.00;99.80;;;;;;5067427;28;20052;-60
2022/07/26 06:28:26;;;;;;;1.85;1.08;;;23.00;99.80;;;;;;5068658;28;20044;-60
2022/07/26 06:30:52;;;;;;;2.50;1.13;;;23.00;99.70;;;;;;5068085;28;20512;-59
2022/07/26 06:33:18;;;;;;;1.05;0.70;;;23.00;99.70;;;;;;5070345;28;20074;-60
2022/07/26 06:35:43;;;;;;;1.92;0.85;;;23.00;99.70;;;;;;5069972;28;20485;-59
2022/07/26 06:38:09;;;;;;;1.13;0.73;;;23.00;99.60;;;;;;5060369;28;20057;-59
2022/07/26 06:40:35;;;;;;;0.93;0.70;;;23.00;99.60;;;;;;5055944;28;20033;-60
2022/07/26 06:43:01;;;;;;;1.23;1.05;;;23.00;99.60;;;;;;5069772;28;20047;-59
2022/07/26 06:45:28;;;;;;;0.82;0.70;;;23.00;99.60;;;;;;5055221;28;20049;-60
2022/07/26 06:47:53;;;;;;;0.68;0.50;;;23.00;99.50;;;;;;5067753;28;20143;-59
2022/07/26 06:50:19;;;;;;;0.57;0.57;;;22.90;99.50;;;;;;5057868;28;20526;-60
2022/07/26 06:52:45;;;;;;;2.80;1.02;;;22.90;99.50;;;;;;5060192;28;20543;-60
2022/07/26 06:55:11;;;;;;;2.08;0.55;;;23.00;99.50;;;;;;5049227;28;20401;-60
2022/07/26 06:57:37;;;;;;;0.73;0.30;;;22.90;99.30;;;;;;5061556;28;20059;-60
2022/07/26 07:00:06;;;;;;;2.42;0.73;;;22.90;98.90;;;;;;5059427;28;20056;-59
2022/07/26 07:02:32;;;;;;;1.95;0.80;;;22.90;99.00;;;;;;5052450;28;20052;-62
2022/07/26 07:04:57;;;;;;;1.17;0.68;;;22.90;98.70;;;;;;5053429;28;20049;-62
2022/07/26 07:07:23;;;;;;;0.82;0.73;;;22.90;98.60;;;;;;5053849;28;20041;-62
2022/07/26 07:09:49;;;;;;;0.80;0.68;;;22.90;98.60;;;;;;5053151;28;20087;-61
2022/07/26 07:12:14;;;;;;;1.05;0.60;;;22.90;98.60;;;;;;5053103;28;20036;-62
2022/07/26 07:14:40;;;;;;;2.40;0.50;;;22.80;98.60;;;;;;5053182;28;20048;-62
2022/07/26 07:17:07;;;;;;;0.85;0.52;;;22.80;98.50;;;;;;5057344;28;20544;-62
2022/07/26 07:19:36;;;;;;;1.45;0.65;;;22.90;98.50;;;;;;5063667;28;20040;-62
2022/07/26 07:22:03;;;;;;;2.28;0.90;;;22.90;98.40;;;;;;5052135;28;20406;-62
2022/07/26 07:24:29;;;;;;;2.88;0.70;;;22.90;98.40;;;;;;5060878;28;20052;-59
2022/07/26 07:26:55;;;;;;;2.13;0.77;;;22.90;98.40;;;;;;5058406;28;20049;-61
2022/07/26 07:29:21;;;;;;;1.17;0.50;;;22.90;98.30;;;;;;5059953;28;20140;-61
2022/07/26 07:31:47;;;;;;;0.40;0.40;;;22.90;98.30;;;;;;5065049;28;20036;-62
2022/07/26 07:34:14;;;;;;;2.15;0.90;;;22.80;98.10;;;;;;5084879;28;20482;-60
2022/07/26 07:36:40;;;;;;;1.10;0.70;;;22.80;98.10;;;;;;5061665;28;20119;-60
2022/07/26 07:39:05;;;;;;;0.65;0.60;;;22.80;98.10;;;;;;5069260;28;20059;-61
2022/07/26 07:41:35;;;;;;;1.20;0.70;;;22.80;98.10;;;;;;5064330;28;20371;-59
2022/07/26 07:44:00;;;;;;;1.45;0.60;;;22.80;98.10;;;;;;5059940;28;20041;-61
2022/07/26 07:46:26;;;;;;;2.50;0.70;;;22.80;98.10;;;;;;5052236;28;20056;-61
2022/07/26 07:48:52;;;;;;;1.58;0.52;;;22.80;98.10;;;;;;5056550;28;20044;-60
2022/07/26 07:51:18;;;;;;;1.20;0.57;;;22.80;98.10;;;;;;5057166;28;20053;-60
2022/07/26 07:53:44;;;;;;;1.35;0.90;;;22.80;98.10;;;;;;5068325;28;20063;-60
2022/07/26 07:56:10;;;;;;;0.80;0.60;;;22.90;98.10;;;;;;5071291;28;20137;-61
2022/07/26 07:58:35;;;;;;;0.43;0.40;;;22.80;98.10;;;;;;5070909;28;20052;-60
2022/07/26 08:01:01;;;;;;;0.60;0.30;;;22.80;98.10;;;;;;5068885;28;20045;-61
2022/07/26 08:03:27;;;;;;;1.10;0.52;;;22.80;98.10;;;;;;5068523;28;20045;-60
2022/07/26 08:05:53;;;;;;;1.63;0.57;;;22.80;98.20;;;;;;5059292;28;20874;-60
2022/07/26 08:08:19;;;;;;;1.50;0.65;;;22.80;97.80;;;;;;5051723;28;20102;-60
2022/07/26 08:10:45;;;;;;;1.60;0.82;;;22.80;97.60;;;;;;5051740;28;20091;-59
2022/07/26 08:13:10;;;;;;;1.63;0.70;;;22.80;97.60;;;;;;5057357;28;20045;-59
2022/07/26 08:15:36;;;;;;;2.55;1.20;;;22.70;97.50;;;;;;5068852;28;20489;-58
2022/07/26 08:18:02;;;;;;;3.20;0.80;;;22.70;97.50;;;;;;5067631;28;20054;-60
2022/07/26 08:20:28;;;;;;;0.45;0.30;;;22.70;97.50;;;;;;5063008;28;20131;-60
2022/07/26 08:22:53;;;;;;;1.60;0.75;;;22.70;97.50;;;;;;5061350;28;20049;-60
2022/07/26 08:25:20;;;;;;;1.10;0.50;;;22.70;97.50;;;;;;5061677;28;20051;-59
2022/07/26 08:27:46;;;;;;;0.77;0.32;;;22.80;97.50;;;;;;5064902;28;20088;-60
2022/07/26 08:30:12;;;;;;;1.38;0.60;;;22.80;97.50;;;;;;5051103;28;20045;-60
2022/07/26 08:32:38;;;;;;;1.45;0.40;;;22.80;97.40;;;;;;5064796;28;20524;-58
2022/07/26 08:35:04;;;;;;;1.13;0.55;;;22.80;97.10;;;;;;5054683;28;20119;-61
2022/07/26 08:37:30;;;;;;;1.20;0.47;;;22.80;97.10;;;;;;5066017;28;20047;-60
2022/07/26 08:39:55;;;;;;;1.75;0.65;;;22.80;97.10;;;;;;5066090;28;20036;-61
2022/07/26 08:42:22;;;;;;;4.22;0.75;;;22.80;97.10;;;;;;5052090;28;20040;-60
2022/07/26 08:44:49;;;;;;;0.60;0.50;;;22.80;97.00;;;;;;5056552;28;20110;-62
2022/07/26 08:47:17;;;;;;;2.38;0.70;;;22.80;97.00;;;;;;5052261;28;20122;-60
2022/07/26 08:49:44;;;;;;;0.65;0.40;;;22.80;96.90;;;;;;5067742;28;20052;-59
2022/07/26 08:52:11;;;;;;;1.05;0.40;;;22.80;96.80;;;;;;5053231;28;20049;-60
2022/07/26 08:54:42;;;;;;;1.10;0.80;;;22.80;96.80;;;;;;5053326;28;20124;-60
2022/07/26 08:57:08;;;;;;;3.55;0.50;;;22.80;96.80;;;;;;5055614;28;20044;-59
2022/07/26 08:59:33;;;;;;;0.75;0.60;;;22.80;96.80;;;;;;5060400;28;20041;-60
2022/07/26 09:02:00;;;;;;;1.05;0.43;;;22.90;96.80;;;;;;5055961;28;20037;-60
2022/07/26 09:04:31;;;;;;;2.47;0.68;;;22.90;96.80;;;;;;5057079;28;20048;-61
2022/07/26 09:07:00;;;;;;;2.08;0.68;;;22.90;96.70;;;;;;5057857;28;20043;-61
2022/07/26 09:09:26;;;;;;;3.65;0.68;;;22.90;96.70;;;;;;5062513;28;20048;-61
2022/07/26 09:11:54;;;;;;;1.58;0.57;;;22.90;96.70;;;;;;5057700;28;20452;-60
2022/07/26 09:14:19;;;;;;;2.83;1.10;;;22.90;96.60;;;;;;5056108;28;20048;-60
2022/07/26 09:16:58;;;;;;;2.28;0.45;;;22.90;96.60;;;;;;5057418;28;20074;-59
2022/07/26 09:19:25;;;;;;;0.82;0.50;;;22.90;96.50;;;;;;5056710;28;20040;-60
2022/07/26 09:21:51;;;;;;;0.55;0.55;;;22.90;96.60;;;;;;5056197;28;20093;-60
2022/07/26 09:24:30;;;;;;;1.17;0.60;;;22.90;96.50;;;;;;5060881;28;20032;-61
2022/07/26 09:26:57;;;;;;;0.73;0.70;;;22.90;96.50;;;;;;5067397;28;20063;-61
2022/07/26 09:29:22;;;;;;;2.05;0.40;;;22.90;96.50;;;;;;5069300;28;20059;-60
2022/07/26 09:31:48;;;;;;;1.45;0.40;;;22.90;96.20;;;;;;5053141;28;20045;-60
2022/07/26 09:34:24;;;;;;;4.05;0.68;;;22.90;95.90;;;;;;5070546;28;20149;-60
2022/07/26 09:36:53;;;;;;;2.70;0.45;;;22.90;95.30;;;;;;5067422;28;20052;-60
2022/07/26 09:39:19;;;;;;;2.58;0.63;;;22.80;95.10;;;;;;5070840;28;20051;-61
2022/07/26 09:41:46;;;;;;;2.65;0.80;;;22.70;94.70;;;;;;5070148;28;20049;-61
2022/07/26 09:44:26;;;;;;;2.75;0.65;;;22.70;94.40;;;;;;5070105;28;20046;-62
2022/07/26 09:46:56;;;;;;;0.47;0.40;;;22.60;94.00;;;;;;5068515;28;20135;-60
2022/07/26 09:49:23;;;;;;;2.67;1.02;;;22.60;94.20;;;;;;5069040;28;20048;-59
2022/07/26 09:51:53;;;;;;;2.00;0.52;;;22.60;94.20;;;;;;5068814;28;20481;-59
2022/07/26 09:54:32;;;;;;;1.42;0.60;;;22.70;94.50;;;;;;5066727;28;20485;-60
2022/07/26 09:56:58;;;;;;;2.63;0.70;;;22.70;94.10;;;;;;5068304;28;20119;-61
2022/07/26 09:59:25;;;;;;;0.77;0.40;;;22.70;94.10;;;;;;5070688;28;20059;-59
2022/07/26 10:01:53;;;;;;;2.95;0.60;;;22.70;94.00;;;;;;5059894;28;20037;-60
2022/07/26 10:04:19;;;;;;;3.10;0.60;;;22.70;93.90;;;;;;5062022;28;20055;-60
2022/07/26 10:06:45;;;;;;;0.93;0.35;;;22.80;93.90;;;;;;5053071;28;20552;-60
2022/07/26 10:09:12;;;;;;;1.23;0.50;;;22.80;93.80;;;;;;5051142;28;20961;-60
2022/07/26 10:11:48;;;;;;;2.58;0.60;;;22.80;93.80;;;;;;5053816;28;20045;-60
2022/07/26 10:14:31;;;;;;;2.15;0.40;;;22.80;93.70;;;;;;5052253;28;20489;-61
2022/07/26 10:16:57;;;;;;;1.58;0.60;;;22.80;93.60;;;;;;5050652;28;20402;-61
2022/07/26 10:19:40;;;;;;;1.63;0.52;;;22.80;93.60;;;;;;5054847;28;20532;-60
2022/07/26 10:22:29;;;;;;;1.00;0.43;;;22.80;93.50;;;;;;5048911;28;20041;-60
2022/07/26 10:24:57;;;;;;;0.88;0.60;;;22.80;93.40;;;;;;5057023;28;20044;-60
2022/07/26 10:27:47;;;;;;;2.13;0.75;;;22.80;93.40;;;;;;5064707;28;20094;-60
2022/07/26 10:30:19;;;;;;;2.05;0.40;;;22.80;93.30;;;;;;5059578;28;20134;-60
2022/07/26 10:32:54;;;;;;;1.92;0.65;;;22.90;93.40;;;;;;5057784;28;20421;-60
2022/07/26 10:35:43;;;;;;;1.80;0.60;;;22.90;93.30;;;;;;5063642;28;20049;-60
2022/07/26 10:38:23;;;;;;;2.50;0.45;;;22.90;93.30;;;;;;5066562;28;20690;-60
2022/07/26 10:41:05;;;;;;;1.55;0.98;;;22.90;93.30;;;;;;5062667;28;20052;-60
2022/07/26 10:43:31;;;;;;;1.20;0.40;;;22.90;93.30;;;;;;5063953;28;20501;-59
2022/07/26 10:46:19;;;;;;;3.08;0.50;;;;;;;;;;5059831;28;20048;-60
2022/07/26 10:49:07;;;;;;;3.92;0.60;;;;;;;;;;5065146;28;20044;-61
2022/07/26 10:51:35;;;;;;;0.60;0.50;;;;;;;;;;5068227;28;20052;-60
2022/07/26 10:54:01;;;;;;;1.25;0.50;;;;;;;;;;5066863;28;20577;-60
2022/07/26 10:56:28;;;;;;;0.63;0.45;;;;;;;;;;5057656;28;20116;-61
2022/07/26 10:58:54;;;;;;;1.27;0.40;;;;;;;;;;5056797;28;20044;-59
2022/07/26 11:01:20;;;;;;;1.65;0.75;;;;;;;;;;5057306;28;20045;-60
2022/07/26 11:03:46;;;;;;;1.73;0.45;;;;;;;;;;5058143;28;20091;-61
2022/07/26 11:06:13;;;;;;;0.50;0.22;;;;;;;;;;5058241;28;20052;-61
2022/07/26 11:08:39;;;;;;;2.30;0.50;;;;;;;;;;5054816;28;20041;-60
2022/07/26 11:11:05;;;;;;;1.77;0.68;;;;;;;;;;5063212;28;20040;-61
2022/07/26 11:13:32;;;;;;;1.90;0.52;;;;;;;;;;5064245;28;20083;-60
2022/07/26 11:16:05;;;;;;;0.47;0.28;;;;;;;;;;5066565;28;20449;-58
2022/07/26 11:18:34;;;;;;;1.10;0.55;;;;;;;;;;5070933;28;20074;-61
2022/07/26 11:21:13;;;;;;;0.22;0.22;;;;;;;;;;5071132;28;20044;-60
2022/07/26 11:23:50;;;;;;;0.95;0.57;;;;;;;;;;5062188;28;20048;-61
2022/07/26 11:26:20;;;;;;;0.98;0.50;;;;;;;;;;5066361;28;20052;-61
2022/07/26 11:28:59;;;;;;;0.82;0.82;;;;;;;;;;5067467;28;20498;-61
2022/07/26 11:31:36;;;;;;;0.63;0.28;;;;;;;;;;5064167;28;20055;-60
2022/07/26 11:34:03;;;;;;;0.45;0.45;;;;;;;;;;5066371;28;20052;-61
2022/07/26 11:36:36;;;;;;;1.75;0.43;;;;;;;;;;5065913;28;20060;-60
2022/07/26 11:39:04;;;;;;;2.97;0.60;;;;;;;;;;5067188;28;20094;-61
2022/07/26 11:41:30;;;;;;;0.90;0.35;;;;;;;;;;5063878;28;20044;-60
2022/07/26 11:43:57;;;;;;;1.10;0.30;;;;;;;;;;5071163;28;20045;-61
2022/07/26 11:46:23;;;;;;;1.20;0.63;;;;;;;;;;5066954;28;20063;-61
2022/07/26 11:48:50;;;;;;;3.17;1.00;;;;;;;;;;5056018;28;20330;-61
2022/07/26 11:51:19;;;;;;;3.65;0.93;;;;;;;;;;5061772;28;20049;-60
2022/07/26 11:53:46;;;;;;;1.80;0.70;;;;;;;;;;5054628;28;20044;-61
2022/07/26 11:56:13;;;;;;;2.90;0.85;;;;;;;;;;5051477;28;20127;-61
2022/07/26 11:58:40;;;;;;;2.20;1.05;;;;;;;;;;5052259;28;20102;-61
2022/07/26 12:01:07;;;;;;;5.07;1.55;;;;;;;;;;5049845;28;20052;-61
2022/07/26 12:03:37;;;;;;;1.45;0.85;;;;;;;;;;5052178;28;20045;-60
2022/07/26 12:06:07;;;;;;;5.30;1.00;;;;;;;;;;5056405;28;20049;-59
2022/07/26 12:08:39;;;;;;;5.10;1.20;;;;;;;;;;5058701;28;20136;-61
2022/07/26 12:11:05;;;;;;;2.47;1.05;;;;;;;;;;5060724;28;20517;-60
2022/07/26 12:13:31;;;;;;;5.68;1.10;;;;;;;;;;5061333;28;20060;-60
2022/07/26 12:15:58;;;;;;;3.15;0.80;;;;;;;;;;5051682;28;20448;-60
2022/07/26 12:18:28;;;;;;;1.48;0.70;;;;;;;;;;5051008;28;20650;-60
2022/07/26 12:20:57;;;;;;;3.33;1.00;;;;;;;;;;5051781;28;20083;-61
2022/07/26 12:23:23;;;;;;;2.90;0.93;;;;;;;;;;5054578;28;20861;-60
2022/07/26 12:25:49;;;;;;;4.13;1.02;;;;;;;;;;5055802;28;20437;-60
2022/07/26 12:28:15;;;;;;;2.97;1.00;;;;;;;;;;5051363;28;20052;-61
2022/07/26 12:30:41;;;;;;;0.73;0.70;;;;;;;;;;5050777;28;20045;-61
2022/07/26 12:33:07;;;;;;;4.32;0.90;;;;;;;;;;5058236;28;20552;-60
2022/07/26 12:35:34;;;;;;;2.78;0.88;;;;;;;;;;5071406;28;20619;-61
2022/07/26 12:38:01;;;;;;;2.58;1.00;;;;;;;;;;5071754;28;20048;-61
2022/07/26 12:40:28;;;;;;;1.92;0.77;;;;;;;;;;5070942;28;20913;-61
2022/07/26 12:42:56;;;;;;;4.90;0.90;;;;;;;;;;5071490;28;20055;-61
2022/07/26 12:45:33;;;;;;;3.08;1.25;;;;;;;;;;5070190;28;20056;-61
2022/07/26 12:48:00;;;;;;;2.53;0.77;;;;;;;;;;5070548;28;20052;-61
2022/07/26 12:50:27;;;;;;;1.50;0.73;;;;;;;;;;5070820;28;20052;-61
2022/07/26 12:53:06;;;;;;;2.40;0.80;;;;;;;;;;5071426;28;20056;-61
2022/07/26 12:55:33;;;;;;;2.83;0.88;;;;;;;;;;5071038;28;20087;-61
2022/07/26 12:57:59;;;;;;;2.35;0.65;;;;;;;;;;5070966;28;20131;-61
2022/07/26 13:00:25;;;;;;;2.30;0.90;;;;;;;;;;5070088;28;20123;-61
2022/07/26 13:02:54;;;;;;;1.17;0.65;;;;;;;;;;5085932;28;20051;-61
2022/07/26 13:05:20;;;;;;;6.10;1.67;;;;;;;;;;5069803;28;20083;-61